Evelyn Cutler — WDH6071 — position and weather

sailwx.info

Track history (hours):
 
Tides and Currents Weather Stations Pressure Air Temp Water Temp Dewpoint Dewpoint Depression Visibility Wind Speed Wind Dir Waves Ship Positions

Evelyn Cutler

Owner: poling&cutler marine trans. llc, East Brunswick, NJ. More information available from US FCC via Universal Licensing System and Coast Guard Vessel Documentation Center.

Last reported at 2018-Feb-24 14:00 UTC. Time now 2018-Feb-24 14:06 UTC.
Position N 40°42' W 074°07'.

Length 40 m; draft 5 m.

Type: Towing. MMSI: 367634360.

Date/timePositionNaut miles runAvg speedWind from/ knotsBaromVisibWave heightAir tempDewpointWater temp
2018-Feb-24 14:00N 40°42' W 074°07'0 0.0
2018-Feb-24 13:30N 40°42' W 074°07'0 0.0
2018-Feb-24 13:00N 40°42' W 074°07'0 0.0
2018-Feb-24 12:30N 40°42' W 074°07'0 0.0
2018-Feb-24 11:54N 40°42' W 074°07'0 0.0
2018-Feb-24 11:30N 40°42' W 074°07'0 0.0
2018-Feb-24 11:00N 40°42' W 074°07'0 0.0
2018-Feb-24 10:30N 40°42' W 074°07'0 0.0
2018-Feb-24 10:00N 40°42' W 074°07'0 0.0
2018-Feb-24 09:30N 40°42' W 074°07'0 0.0
2018-Feb-24 09:00N 40°42' W 074°07'0 0.0
2018-Feb-24 08:30N 40°42' W 074°07'0 0.0
2018-Feb-24 08:00N 40°42' W 074°07'0 0.0
2018-Feb-24 07:30N 40°42' W 074°07'0 0.0
2018-Feb-24 07:00N 40°42' W 074°07'0 0.0
2018-Feb-24 06:30N 40°42' W 074°07'0 0.0
2018-Feb-24 06:00N 40°42' W 074°07'0 0.0
2018-Feb-24 05:30N 40°42' W 074°07'0 0.0
2018-Feb-24 05:00N 40°42' W 074°07'0 0.0
2018-Feb-24 04:30N 40°42' W 074°07'0 0.0
2018-Feb-24 04:00N 40°42' W 074°07'0 0.0
2018-Feb-24 03:30N 40°42' W 074°07'0 0.0
2018-Feb-24 03:00N 40°42' W 074°07'0 0.0
2018-Feb-24 02:30N 40°42' W 074°07'0 0.0
2018-Feb-24 02:00N 40°42' W 074°07'0 0.0
2018-Feb-24 01:27N 40°42' W 074°07'0 0.0
2018-Feb-24 01:00N 40°42' W 074°07'0 0.0
2018-Feb-24 00:30N 40°42' W 074°07'0 0.0
2018-Feb-23 23:57N 40°42' W 074°07'0 0.0
2018-Feb-23 23:30N 40°42' W 074°07'0 0.0
2018-Feb-23 23:00N 40°42' W 074°07'0 0.0
2018-Feb-23 22:30N 40°42' W 074°07'1 2.4
2018-Feb-23 22:00N 40°41' W 074°08'3 5.1
2018-Feb-23 21:30N 40°39' W 074°08'1 1.2
2018-Feb-23 20:59N 40°39' W 074°07'0 0.0
2018-Feb-23 20:29N 40°39' W 074°07'0 0.0
2018-Feb-23 19:53N 40°39' W 074°07'0 0.0
2018-Feb-23 19:29N 40°39' W 074°07'0 0.0
2018-Feb-23 18:59N 40°39' W 074°07'0 0.0
2018-Feb-23 18:29N 40°39' W 074°07'0 0.0
2018-Feb-23 17:56N 40°39' W 074°07'0 0.2
2018-Feb-23 17:30N 40°39' W 074°07'3 5.5
2018-Feb-23 17:00N 40°41' W 074°08'1 1.9
2018-Feb-23 16:29N 40°42' W 074°07'0 0.0
2018-Feb-23 15:59N 40°42' W 074°07'0 0.0
2018-Feb-23 15:29N 40°42' W 074°07'0 0.0
2018-Feb-23 14:59N 40°42' W 074°07'0 0.0
2018-Feb-23 14:26N 40°42' W 074°07'0 0.0
2018-Feb-23 13:56N 40°42' W 074°07'0 0.0
2018-Feb-23 13:29N 40°42' W 074°07'0 0.0
2018-Feb-23 12:59N 40°42' W 074°07'0 0.0
2018-Feb-23 12:29N 40°42' W 074°07'0 0.0
2018-Feb-23 11:59N 40°42' W 074°07'0 0.0
2018-Feb-23 11:29N 40°42' W 074°07'0 0.0
2018-Feb-23 10:59N 40°42' W 074°07'0 0.0
2018-Feb-23 10:29N 40°42' W 074°07'0 0.0
2018-Feb-23 09:59N 40°42' W 074°07'0 0.0
2018-Feb-23 09:26N 40°42' W 074°07'0 0.0
2018-Feb-23 08:59N 40°42' W 074°07'0 0.0
2018-Feb-23 08:29N 40°42' W 074°07'0 0.0
2018-Feb-23 07:59N 40°42' W 074°07'0 0.0
2018-Feb-23 07:29N 40°42' W 074°07'0 0.0
2018-Feb-23 06:59N 40°42' W 074°07'0 0.0
2018-Feb-23 06:29N 40°42' W 074°07'0 0.0
2018-Feb-23 05:59N 40°42' W 074°07'0 0.0
2018-Feb-23 05:29N 40°42' W 074°07'0 0.0
2018-Feb-23 04:59N 40°42' W 074°07'0 0.0
2018-Feb-23 04:26N 40°42' W 074°07'0 0.0
2018-Feb-23 03:56N 40°42' W 074°07'0 0.0
2018-Feb-23 03:29N 40°42' W 074°07'0 0.0
2018-Feb-23 02:59N 40°42' W 074°07'0 0.0
2018-Feb-23 02:29N 40°42' W 074°07'0 0.0
2018-Feb-23 01:59N 40°42' W 074°07'0 0.0
2018-Feb-23 01:29N 40°42' W 074°07'0 0.0
2018-Feb-23 00:59N 40°42' W 074°07'0 0.0
2018-Feb-23 00:26N 40°42' W 074°07'0 0.0
2018-Feb-22 23:59N 40°42' W 074°07'0 0.0
2018-Feb-22 23:29N 40°42' W 074°07'0 0.0
2018-Feb-22 22:59N 40°42' W 074°07'0 0.0
2018-Feb-22 22:28N 40°42' W 074°07'0 0.0
2018-Feb-22 21:59N 40°42' W 074°07'0 0.0
2018-Feb-22 21:29N 40°42' W 074°07'0 0.0
2018-Feb-22 20:59N 40°42' W 074°07'0 0.0
2018-Feb-22 20:28N 40°42' W 074°07'0 0.3
2018-Feb-22 19:59N 40°42' W 074°07'3 7.0
2018-Feb-22 19:30N 40°39' W 074°09'3 6.5
2018-Feb-22 19:00N 40°37' W 074°12'4 6.4
2018-Feb-22 18:24N 40°33' W 074°14'1 0.1
2018-Feb-22 05:48N 40°32' W 074°15'0 0.1
2018-Feb-22 05:25N 40°32' W 074°15'0 0.2
2018-Feb-22 04:01N 40°32' W 074°15'0 6.8
2018-Feb-22 03:59N 40°33' W 074°15'3 5.7
2018-Feb-22 03:30N 40°35' W 074°13'3 6.3
2018-Feb-22 03:00N 40°38' W 074°12'3 5.1
2018-Feb-22 02:30N 40°39' W 074°09'4 8.6
2018-Feb-22 02:00N 40°39' W 074°03'5 9.6
2018-Feb-22 01:30N 40°44' W 074°01'4 8.0
2018-Feb-22 01:00N 40°48' W 073°59'4 7.2
2018-Feb-22 00:30N 40°51' W 073°57'4 8.8
2018-Feb-22 00:00N 40°55' W 073°55'2 3.0
2018-Feb-21 23:29N 40°56' W 073°55'2 0.0
2018-Feb-20 03:31N 40°55' W 073°55'1 9.0
2018-Feb-20 03:25N 40°54' W 073°55'4 9.1
2018-Feb-20 03:00N 40°50' W 073°57'4 8.9
2018-Feb-20 02:30N 40°46' W 074°00'4 8.2
2018-Feb-20 02:00N 40°43' W 074°02'4 8.0
2018-Feb-20 01:30N 40°39' W 074°04'3 6.8
2018-Feb-20 00:59N 40°38' W 074°09'3 6.4
2018-Feb-20 00:30N 40°37' W 074°12'1 2.8
2018-Feb-20 00:00N 40°35' W 074°12'0 0.0
2018-Feb-19 23:30N 40°35' W 074°12'0 0.0
2018-Feb-19 23:00N 40°35' W 074°12'0 0.0
2018-Feb-19 22:30N 40°35' W 074°12'0 0.0
2018-Feb-19 22:00N 40°35' W 074°12'0 0.0
2018-Feb-19 21:24N 40°35' W 074°12'0 0.0
2018-Feb-19 21:00N 40°35' W 074°12'0 0.0
2018-Feb-19 16:06N 40°35' W 074°12'0 0.0
2018-Feb-19 16:00N 40°35' W 074°12'0 0.0
2018-Feb-19 15:23N 40°35' W 074°12'0 0.0
2018-Feb-19 15:00N 40°35' W 074°12'0 0.0
2018-Feb-19 14:21N 40°35' W 074°12'0 0.0
2018-Feb-19 14:00N 40°35' W 074°12'0 0.0
2018-Feb-19 13:30N 40°35' W 074°12'0 0.1
2018-Feb-19 12:58N 40°35' W 074°12'3 5.3
2018-Feb-19 12:30N 40°38' W 074°12'3 5.9
2018-Feb-19 12:00N 40°39' W 074°08'5 9.1
2018-Feb-19 11:30N 40°40' W 074°03'4 7.5
2018-Feb-19 11:00N 40°43' W 073°59'3 6.7
2018-Feb-19 10:30N 40°46' W 073°57'4 7.2
2018-Feb-19 09:58N 40°48' W 073°53'4 8.5
2018-Feb-19 09:30N 40°48' W 073°48'1 2.6
2018-Feb-19 08:58N 40°49' W 073°47'0 0.0
2018-Feb-19 05:55N 40°49' W 073°47'1 2.7
2018-Feb-19 05:29N 40°50' W 073°47'4 7.2
2018-Feb-19 04:59N 40°53' W 073°44'48 8.1
2018-Feb-18 23:07N 41°10' W 072°44'1 8.4
2018-Feb-18 22:59N 41°10' W 072°43'4 8.2
2018-Feb-18 22:30N 41°12' W 072°38'4 7.7
2018-Feb-18 22:00N 41°12' W 072°33'4 7.3
2018-Feb-18 21:30N 41°12' W 072°28'4 7.2
2018-Feb-18 21:00N 41°13' W 072°24'4 7.2
2018-Feb-18 20:28N 41°13' W 072°18'3 7.0
2018-Feb-18 20:00N 41°14' W 072°14'8 0.8
2018-Feb-18 09:09N 41°18' W 072°05'1 6.0
2018-Feb-18 08:59N 41°17' W 072°05'6 9.1
2018-Feb-18 08:17N 41°14' W 072°13'310.4
2018-Feb-18 08:00N 41°14' W 072°17'510.3
2018-Feb-18 07:30N 41°12' W 072°23'5 9.3
2018-Feb-18 07:00N 41°12' W 072°29'4 9.0
2018-Feb-18 06:30N 41°12' W 072°35'4 8.4
2018-Feb-18 06:00N 41°12' W 072°41'4 8.1
2018-Feb-18 05:30N 41°11' W 072°46'49 7.6
2018-Feb-17 23:03N 40°51' W 073°46'0 8.7
2018-Feb-17 23:00N 40°50' W 073°46'3 6.8
2018-Feb-17 22:30N 40°48' W 073°49'4 7.5
2018-Feb-17 21:57N 40°48' W 073°55'2 4.9
2018-Feb-17 21:30N 40°46' W 073°57'2 4.8
2018-Feb-17 21:00N 40°44' W 073°58'2 4.1
2018-Feb-17 20:30N 40°42' W 073°60'2 4.3
2018-Feb-17 20:00N 40°41' W 074°01'2 4.5
2018-Feb-17 19:30N 40°39' W 074°03'0 0.4
2018-Feb-17 19:00N 40°39' W 074°03'0 0.1
2018-Feb-17 18:30N 40°39' W 074°03'0 0.1
2018-Feb-17 18:00N 40°39' W 074°03'0 0.1
2018-Feb-17 17:30N 40°39' W 074°03'3 5.5
2018-Feb-17 17:00N 40°39' W 074°07'3 5.8
2018-Feb-17 16:30N 40°39' W 074°10'3 5.1
2018-Feb-17 16:00N 40°37' W 074°12'2 2.1
2018-Feb-17 15:17N 40°35' W 074°13'0 0.0
2018-Feb-17 14:49N 40°35' W 074°13'0 0.0
2018-Feb-17 13:06N 40°35' W 074°13'0 0.0
2018-Feb-17 12:54N 40°35' W 074°13'0 0.0
2018-Feb-17 07:57N 40°35' W 074°13'0 0.0
2018-Feb-17 07:21N 40°35' W 074°13'0 0.0
2018-Feb-17 06:39N 40°35' W 074°13'0 0.0
2018-Feb-17 06:31N 40°35' W 074°13'0 0.0
2018-Feb-17 06:01N 40°35' W 074°13'0 0.0
2018-Feb-17 05:30N 40°35' W 074°13'0 0.0
2018-Feb-17 04:51N 40°35' W 074°13'0 0.0
2018-Feb-17 04:29N 40°35' W 074°13'3 6.0
2018-Feb-17 04:00N 40°38' W 074°12'4 7.8
2018-Feb-17 03:30N 40°39' W 074°07'0 0.0
2018-Feb-17 03:00N 40°39' W 074°07'0 0.0
2018-Feb-17 02:30N 40°39' W 074°07'0 0.0
2018-Feb-17 02:00N 40°39' W 074°07'0 0.0
2018-Feb-17 01:31N 40°39' W 074°07'0 0.0
2018-Feb-17 00:30N 40°39' W 074°07'0 0.0
2018-Feb-16 23:59N 40°39' W 074°07'0 0.0
2018-Feb-16 23:30N 40°39' W 074°07'0 0.0
2018-Feb-16 23:00N 40°39' W 074°07'1 2.0
2018-Feb-16 22:30N 40°39' W 074°08'3 6.9
2018-Feb-16 22:00N 40°37' W 074°12'2 0.3
2018-Feb-16 15:26N 40°35' W 074°13'0 0.7
2018-Feb-16 15:00N 40°35' W 074°13'1 1.9
2018-Feb-16 14:27N 40°36' W 074°12'2 3.9
2018-Feb-16 14:00N 40°38' W 074°12'3 6.1
2018-Feb-16 13:30N 40°39' W 074°08'3 6.8
2018-Feb-16 13:01N 40°39' W 074°04'3 6.0
2018-Feb-16 12:30N 40°42' W 074°02'3 6.3
2018-Feb-16 12:00N 40°45' W 074°01'3 5.2
2018-Feb-16 11:30N 40°47' W 073°60'1 2.2
2018-Feb-16 11:00N 40°48' W 073°59'1 1.2
2018-Feb-16 10:30N 40°49' W 073°59'1 2.2
2018-Feb-16 09:59N 40°50' W 073°58'1 2.1
2018-Feb-16 09:30N 40°50' W 073°58'2 4.4
2018-Feb-16 09:00N 40°53' W 073°56'1 2.7
2018-Feb-16 08:30N 40°54' W 073°56'1 2.8
2018-Feb-16 08:00N 40°55' W 073°55'2 3.9
2018-Feb-16 07:29N 40°57' W 073°54'  
Track history (hours):
 
Tides and Currents Weather Stations Pressure Air Temp Water Temp Dewpoint Dewpoint Depression Visibility Wind Speed Wind Dir Waves Ship Positions

Evelyn Cutler

Owner: poling&cutler marine trans. llc, East Brunswick, NJ. More information available from US FCC via Universal Licensing System and Coast Guard Vessel Documentation Center.

Last reported at 2018-Feb-24 14:00 UTC. Time now 2018-Feb-24 14:06 UTC.
Position N 40°42' W 074°07'.

Length 40 m; draft 5 m.

Type: Towing. MMSI: 367634360.

Date/timePositionNaut miles runAvg speedWind from/ knotsBaromVisibWave heightAir tempDewpointWater temp
2018-Feb-24 14:00N 40°42' W 074°07'0 0.0
2018-Feb-24 13:30N 40°42' W 074°07'0 0.0
2018-Feb-24 13:00N 40°42' W 074°07'0 0.0
2018-Feb-24 12:30N 40°42' W 074°07'0 0.0
2018-Feb-24 11:54N 40°42' W 074°07'0 0.0
2018-Feb-24 11:30N 40°42' W 074°07'0 0.0
2018-Feb-24 11:00N 40°42' W 074°07'0 0.0
2018-Feb-24 10:30N 40°42' W 074°07'0 0.0
2018-Feb-24 10:00N 40°42' W 074°07'0 0.0
2018-Feb-24 09:30N 40°42' W 074°07'0 0.0
2018-Feb-24 09:00N 40°42' W 074°07'0 0.0
2018-Feb-24 08:30N 40°42' W 074°07'0 0.0
2018-Feb-24 08:00N 40°42' W 074°07'0 0.0
2018-Feb-24 07:30N 40°42' W 074°07'0 0.0
2018-Feb-24 07:00N 40°42' W 074°07'0 0.0
2018-Feb-24 06:30N 40°42' W 074°07'0 0.0
2018-Feb-24 06:00N 40°42' W 074°07'0 0.0
2018-Feb-24 05:30N 40°42' W 074°07'0 0.0
2018-Feb-24 05:00N 40°42' W 074°07'0 0.0
2018-Feb-24 04:30N 40°42' W 074°07'0 0.0
2018-Feb-24 04:00N 40°42' W 074°07'0 0.0
2018-Feb-24 03:30N 40°42' W 074°07'0 0.0
2018-Feb-24 03:00N 40°42' W 074°07'0 0.0
2018-Feb-24 02:30N 40°42' W 074°07'0 0.0
2018-Feb-24 02:00N 40°42' W 074°07'0 0.0
2018-Feb-24 01:27N 40°42' W 074°07'0 0.0
2018-Feb-24 01:00N 40°42' W 074°07'0 0.0
2018-Feb-24 00:30N 40°42' W 074°07'0 0.0
2018-Feb-23 23:57N 40°42' W 074°07'0 0.0
2018-Feb-23 23:30N 40°42' W 074°07'0 0.0
2018-Feb-23 23:00N 40°42' W 074°07'0 0.0
2018-Feb-23 22:30N 40°42' W 074°07'1 2.4
2018-Feb-23 22:00N 40°41' W 074°08'3 5.1
2018-Feb-23 21:30N 40°39' W 074°08'1 1.2
2018-Feb-23 20:59N 40°39' W 074°07'0 0.0
2018-Feb-23 20:29N 40°39' W 074°07'0 0.0
2018-Feb-23 19:53N 40°39' W 074°07'0 0.0
2018-Feb-23 19:29N 40°39' W 074°07'0 0.0
2018-Feb-23 18:59N 40°39' W 074°07'0 0.0
2018-Feb-23 18:29N 40°39' W 074°07'0 0.0
2018-Feb-23 17:56N 40°39' W 074°07'0 0.2
2018-Feb-23 17:30N 40°39' W 074°07'3 5.5
2018-Feb-23 17:00N 40°41' W 074°08'1 1.9
2018-Feb-23 16:29N 40°42' W 074°07'0 0.0
2018-Feb-23 15:59N 40°42' W 074°07'0 0.0
2018-Feb-23 15:29N 40°42' W 074°07'0 0.0
2018-Feb-23 14:59N 40°42' W 074°07'0 0.0
2018-Feb-23 14:26N 40°42' W 074°07'0 0.0
2018-Feb-23 13:56N 40°42' W 074°07'0 0.0
2018-Feb-23 13:29N 40°42' W 074°07'0 0.0
2018-Feb-23 12:59N 40°42' W 074°07'0 0.0
2018-Feb-23 12:29N 40°42' W 074°07'0 0.0
2018-Feb-23 11:59N 40°42' W 074°07'0 0.0
2018-Feb-23 11:29N 40°42' W 074°07'0 0.0
2018-Feb-23 10:59N 40°42' W 074°07'0 0.0
2018-Feb-23 10:29N 40°42' W 074°07'0 0.0
2018-Feb-23 09:59N 40°42' W 074°07'0 0.0
2018-Feb-23 09:26N 40°42' W 074°07'0 0.0
2018-Feb-23 08:59N 40°42' W 074°07'0 0.0
2018-Feb-23 08:29N 40°42' W 074°07'0 0.0
2018-Feb-23 07:59N 40°42' W 074°07'0 0.0
2018-Feb-23 07:29N 40°42' W 074°07'0 0.0
2018-Feb-23 06:59N 40°42' W 074°07'0 0.0
2018-Feb-23 06:29N 40°42' W 074°07'0 0.0
2018-Feb-23 05:59N 40°42' W 074°07'0 0.0
2018-Feb-23 05:29N 40°42' W 074°07'0 0.0
2018-Feb-23 04:59N 40°42' W 074°07'0 0.0
2018-Feb-23 04:26N 40°42' W 074°07'0 0.0
2018-Feb-23 03:56N 40°42' W 074°07'0 0.0
2018-Feb-23 03:29N 40°42' W 074°07'0 0.0
2018-Feb-23 02:59N 40°42' W 074°07'0 0.0
2018-Feb-23 02:29N 40°42' W 074°07'0 0.0
2018-Feb-23 01:59N 40°42' W 074°07'0 0.0
2018-Feb-23 01:29N 40°42' W 074°07'0 0.0
2018-Feb-23 00:59N 40°42' W 074°07'0 0.0
2018-Feb-23 00:26N 40°42' W 074°07'0 0.0
2018-Feb-22 23:59N 40°42' W 074°07'0 0.0
2018-Feb-22 23:29N 40°42' W 074°07'0 0.0
2018-Feb-22 22:59N 40°42' W 074°07'0 0.0
2018-Feb-22 22:28N 40°42' W 074°07'0 0.0
2018-Feb-22 21:59N 40°42' W 074°07'0 0.0
2018-Feb-22 21:29N 40°42' W 074°07'0 0.0
2018-Feb-22 20:59N 40°42' W 074°07'0 0.0
2018-Feb-22 20:28N 40°42' W 074°07'0 0.3
2018-Feb-22 19:59N 40°42' W 074°07'3 7.0
2018-Feb-22 19:30N 40°39' W 074°09'3 6.5
2018-Feb-22 19:00N 40°37' W 074°12'4 6.4
2018-Feb-22 18:24N 40°33' W 074°14'1 0.1
2018-Feb-22 05:48N 40°32' W 074°15'0 0.1
2018-Feb-22 05:25N 40°32' W 074°15'0 0.2
2018-Feb-22 04:01N 40°32' W 074°15'0 6.8
2018-Feb-22 03:59N 40°33' W 074°15'3 5.7
2018-Feb-22 03:30N 40°35' W 074°13'3 6.3
2018-Feb-22 03:00N 40°38' W 074°12'3 5.1
2018-Feb-22 02:30N 40°39' W 074°09'4 8.6
2018-Feb-22 02:00N 40°39' W 074°03'5 9.6
2018-Feb-22 01:30N 40°44' W 074°01'4 8.0
2018-Feb-22 01:00N 40°48' W 073°59'4 7.2
2018-Feb-22 00:30N 40°51' W 073°57'4 8.8
2018-Feb-22 00:00N 40°55' W 073°55'2 3.0
2018-Feb-21 23:29N 40°56' W 073°55'2 0.0
2018-Feb-20 03:31N 40°55' W 073°55'1 9.0
2018-Feb-20 03:25N 40°54' W 073°55'4 9.1
2018-Feb-20 03:00N 40°50' W 073°57'4 8.9
2018-Feb-20 02:30N 40°46' W 074°00'4 8.2
2018-Feb-20 02:00N 40°43' W 074°02'4 8.0
2018-Feb-20 01:30N 40°39' W 074°04'3 6.8
2018-Feb-20 00:59N 40°38' W 074°09'3 6.4
2018-Feb-20 00:30N 40°37' W 074°12'1 2.8
2018-Feb-20 00:00N 40°35' W 074°12'0 0.0
2018-Feb-19 23:30N 40°35' W 074°12'0 0.0
2018-Feb-19 23:00N 40°35' W 074°12'0 0.0
2018-Feb-19 22:30N 40°35' W 074°12'0 0.0
2018-Feb-19 22:00N 40°35' W 074°12'0 0.0
2018-Feb-19 21:24N 40°35' W 074°12'0 0.0
2018-Feb-19 21:00N 40°35' W 074°12'0 0.0
2018-Feb-19 16:06N 40°35' W 074°12'0 0.0
2018-Feb-19 16:00N 40°35' W 074°12'0 0.0
2018-Feb-19 15:23N 40°35' W 074°12'0 0.0
2018-Feb-19 15:00N 40°35' W 074°12'0 0.0
2018-Feb-19 14:21N 40°35' W 074°12'0 0.0
2018-Feb-19 14:00N 40°35' W 074°12'0 0.0
2018-Feb-19 13:30N 40°35' W 074°12'0 0.1
2018-Feb-19 12:58N 40°35' W 074°12'3 5.3
2018-Feb-19 12:30N 40°38' W 074°12'3 5.9
2018-Feb-19 12:00N 40°39' W 074°08'5 9.1
2018-Feb-19 11:30N 40°40' W 074°03'4 7.5
2018-Feb-19 11:00N 40°43' W 073°59'3 6.7
2018-Feb-19 10:30N 40°46' W 073°57'4 7.2
2018-Feb-19 09:58N 40°48' W 073°53'4 8.5
2018-Feb-19 09:30N 40°48' W 073°48'1 2.6
2018-Feb-19 08:58N 40°49' W 073°47'0 0.0
2018-Feb-19 05:55N 40°49' W 073°47'1 2.7
2018-Feb-19 05:29N 40°50' W 073°47'4 7.2
2018-Feb-19 04:59N 40°53' W 073°44'48 8.1
2018-Feb-18 23:07N 41°10' W 072°44'1 8.4
2018-Feb-18 22:59N 41°10' W 072°43'4 8.2
2018-Feb-18 22:30N 41°12' W 072°38'4 7.7
2018-Feb-18 22:00N 41°12' W 072°33'4 7.3
2018-Feb-18 21:30N 41°12' W 072°28'4 7.2
2018-Feb-18 21:00N 41°13' W 072°24'4 7.2
2018-Feb-18 20:28N 41°13' W 072°18'3 7.0
2018-Feb-18 20:00N 41°14' W 072°14'8 0.8
2018-Feb-18 09:09N 41°18' W 072°05'1 6.0
2018-Feb-18 08:59N 41°17' W 072°05'6 9.1
2018-Feb-18 08:17N 41°14' W 072°13'310.4
2018-Feb-18 08:00N 41°14' W 072°17'510.3
2018-Feb-18 07:30N 41°12' W 072°23'5 9.3
2018-Feb-18 07:00N 41°12' W 072°29'4 9.0
2018-Feb-18 06:30N 41°12' W 072°35'4 8.4
2018-Feb-18 06:00N 41°12' W 072°41'4 8.1
2018-Feb-18 05:30N 41°11' W 072°46'49 7.6
2018-Feb-17 23:03N 40°51' W 073°46'0 8.7
2018-Feb-17 23:00N 40°50' W 073°46'3 6.8
2018-Feb-17 22:30N 40°48' W 073°49'4 7.5
2018-Feb-17 21:57N 40°48' W 073°55'2 4.9
2018-Feb-17 21:30N 40°46' W 073°57'2 4.8
2018-Feb-17 21:00N 40°44' W 073°58'2 4.1
2018-Feb-17 20:30N 40°42' W 073°60'2 4.3
2018-Feb-17 20:00N 40°41' W 074°01'2 4.5
2018-Feb-17 19:30N 40°39' W 074°03'0 0.4
2018-Feb-17 19:00N 40°39' W 074°03'0 0.1
2018-Feb-17 18:30N 40°39' W 074°03'0 0.1
2018-Feb-17 18:00N 40°39' W 074°03'0 0.1
2018-Feb-17 17:30N 40°39' W 074°03'3 5.5
2018-Feb-17 17:00N 40°39' W 074°07'3 5.8
2018-Feb-17 16:30N 40°39' W 074°10'3 5.1
2018-Feb-17 16:00N 40°37' W 074°12'2 2.1
2018-Feb-17 15:17N 40°35' W 074°13'0 0.0
2018-Feb-17 14:49N 40°35' W 074°13'0 0.0
2018-Feb-17 13:06N 40°35' W 074°13'0 0.0
2018-Feb-17 12:54N 40°35' W 074°13'0 0.0
2018-Feb-17 07:57N 40°35' W 074°13'0 0.0
2018-Feb-17 07:21N 40°35' W 074°13'0 0.0
2018-Feb-17 06:39N 40°35' W 074°13'0 0.0
2018-Feb-17 06:31N 40°35' W 074°13'0 0.0
2018-Feb-17 06:01N 40°35' W 074°13'0 0.0
2018-Feb-17 05:30N 40°35' W 074°13'0 0.0
2018-Feb-17 04:51N 40°35' W 074°13'0 0.0
2018-Feb-17 04:29N 40°35' W 074°13'3 6.0
2018-Feb-17 04:00N 40°38' W 074°12'4 7.8
2018-Feb-17 03:30N 40°39' W 074°07'0 0.0
2018-Feb-17 03:00N 40°39' W 074°07'0 0.0
2018-Feb-17 02:30N 40°39' W 074°07'0 0.0
2018-Feb-17 02:00N 40°39' W 074°07'0 0.0
2018-Feb-17 01:31N 40°39' W 074°07'0 0.0
2018-Feb-17 00:30N 40°39' W 074°07'0 0.0
2018-Feb-16 23:59N 40°39' W 074°07'0 0.0
2018-Feb-16 23:30N 40°39' W 074°07'0 0.0
2018-Feb-16 23:00N 40°39' W 074°07'1 2.0
2018-Feb-16 22:30N 40°39' W 074°08'3 6.9
2018-Feb-16 22:00N 40°37' W 074°12'2 0.3
2018-Feb-16 15:26N 40°35' W 074°13'0 0.7
2018-Feb-16 15:00N 40°35' W 074°13'1 1.9
2018-Feb-16 14:27N 40°36' W 074°12'2 3.9
2018-Feb-16 14:00N 40°38' W 074°12'3 6.1
2018-Feb-16 13:30N 40°39' W 074°08'3 6.8
2018-Feb-16 13:01N 40°39' W 074°04'3 6.0
2018-Feb-16 12:30N 40°42' W 074°02'3 6.3
2018-Feb-16 12:00N 40°45' W 074°01'3 5.2
2018-Feb-16 11:30N 40°47' W 073°60'1 2.2
2018-Feb-16 11:00N 40°48' W 073°59'1 1.2
2018-Feb-16 10:30N 40°49' W 073°59'1 2.2
2018-Feb-16 09:59N 40°50' W 073°58'1 2.1
2018-Feb-16 09:30N 40°50' W 073°58'2 4.4
2018-Feb-16 09:00N 40°53' W 073°56'1 2.7
2018-Feb-16 08:30N 40°54' W 073°56'1 2.8
2018-Feb-16 08:00N 40°55' W 073°55'2 3.9
2018-Feb-16 07:29N 40°57' W 073°54'  

Dump ship's entire track history